Flight Track Log - Related Links

Times and Time Zones

All times are in EDT time to prevent confusion due to time zone crossing. See the EGF3633 flight status page for this flight to view local times or setup timezone preferences in your user account.

Time Position Orientation Groundspeed Altitude Reporting Facility
EDT Latitude Longitude Course Direction KTS MPH feet Rate Location/Type
Tue 10:52:00 AM 41.9760 -73.2360 275° West  Level Estimated
Tue 10:53:00 AM 41.9831 -73.3466 275° West  Level Estimated
Tue 10:54:00 AM 41.9900 -73.4573 275° West  Level Estimated
Tue 10:55:00 AM 41.9968 -73.5679 275° West  Level Estimated
Tue 10:56:00 AM 42.0036 -73.6786 275° West  Level Estimated
Tue 10:57:00 AM 42.0102 -73.7893 275° West  Level Estimated
Tue 10:58:00 AM 42.0167 -73.9000 275° West  Level Estimated
Tue 10:59:00 AM 42.0231 -74.0108 274° West  Level Estimated
Tue 11:00:00 AM 42.0294 -74.1215 274° West  Level Estimated
Tue 11:01:00 AM 42.0356 -74.2323 274° West  Level Estimated
Tue 11:02:00 AM 42.0417 -74.3431 274° West  Level Estimated
Tue 11:03:00 AM 42.0477 -74.4540 274° West  Level Estimated
Tue 11:04:00 AM 42.0536 -74.5648 274° West  Level Estimated
Tue 11:05:00 AM 42.0594 -74.6757 274° West  Level Estimated
Tue 11:06:00 AM 42.0650 -74.7866 274° West  Level Estimated
Tue 11:07:00 AM 42.0706 -74.8975 274° West  Level Estimated
Tue 11:08:00 AM 42.0760 -75.0085 274° West  Level Estimated
Tue 11:09:00 AM 42.0814 -75.1194 274° West  Level Estimated
Tue 11:10:00 AM 42.0866 -75.2304 274° West  Level Estimated
Tue 11:11:00 AM 42.0918 -75.3414 274° West  Level Estimated
Tue 11:12:00 AM 42.0968 -75.4524 274° West  Level Estimated
Tue 11:13:00 AM 42.1017 -75.5634 273° West  Level Estimated
Tue 11:14:00 AM 42.1065 -75.6744 273° West  Level Estimated
Tue 11:15:00 AM 42.1112 -75.7855 273° West  Level Estimated
Tue 11:16:00 AM 42.1158 -75.8966 273° West  Level Estimated
Tue 11:17:00 AM 42.1203 -76.0077 273° West  Level Estimated
Tue 11:18:00 AM 42.1247 -76.1188 273° West  Level Estimated
Tue 11:19:00 AM 42.1290 -76.2299 273° West  Level Estimated
Tue 11:20:00 AM 42.1331 -76.3410 273° West  Level Estimated
Tue 11:21:00 AM 42.1372 -76.4522 273° West  Level Estimated
Tue 11:22:00 AM 42.1412 -76.5633 273° West  Level Estimated
Tue 11:23:00 AM 42.1450 -76.6745 273° West  Level Estimated
Tue 11:24:00 AM 42.1488 -76.7857 273° West  Level Estimated
Tue 11:25:00 AM 42.1524 -76.8969 273° West  Level Estimated
Tue 11:26:00 AM 42.1559 -77.0081 272° West  Level Estimated
Tue 11:27:00 AM 42.1593 -77.1193 272° West  Level Estimated
Tue 11:28:00 AM 42.1626 -77.2306 272° West  Level Estimated
Tue 11:29:00 AM 42.1658 -77.3418 272° West  Level Estimated
Tue 11:30:00 AM 42.1689 -77.4531 272° West  Level Estimated
Tue 11:31:00 AM 42.1719 -77.5644 272° West  Level Estimated
Tue 11:32:00 AM 42.1748 -77.6757 272° West  Level Estimated
Tue 11:33:00 AM 42.1776 -77.7869 272° West  Level Estimated
Tue 11:34:00 AM 42.1802 -77.8983 272° West  Level Estimated
Tue 11:35:00 AM 42.1828 -78.0096 272° West  Level Estimated
Tue 11:36:00 AM 42.1852 -78.1209 272° West  Level Estimated
Tue 11:37:00 AM 42.1876 -78.2322 272° West  Level Estimated
Tue 11:38:00 AM 42.1898 -78.3436 272° West  Level Estimated
Tue 11:39:00 AM 42.1920 -78.4549 272° West  Level Estimated
Tue 11:40:00 AM 42.1940 -78.5663 271° West  Level Estimated
Tue 11:41:00 AM 42.1959 -78.6776 271° West  Level Estimated
Tue 11:42:00 AM 42.1977 -78.7890 271° West  Level Estimated
Tue 11:43:00 AM 42.1994 -78.9004 271° West  Level Estimated
Tue 11:44:00 AM 42.2010 -79.0117 271° West  Level Estimated
Tue 11:45:00 AM 42.2025 -79.1231 271° West  Level Estimated
Tue 11:46:00 AM 42.2038 -79.2345 271° West  Level Estimated
Tue 11:47:00 AM 42.2051 -79.3459 271° West  Level Estimated
Tue 11:48:00 AM 42.2062 -79.4573 271° West  Level Estimated
Tue 11:49:00 AM 42.2073 -79.5687 271° West  Level Estimated
Tue 11:50:00 AM 42.2082 -79.6801 271° West  Level Estimated
Tue 11:51:00 AM 42.2091 -79.7915 271° West  Level Estimated
Tue 11:52:00 AM 42.2098 -79.9029 271° West  Level Estimated
Tue 11:53:00 AM 42.2104 -80.0143 270° West  Level Estimated
Tue 11:54:00 AM 42.2109 -80.1258 270° West  Level Estimated
Tue 11:55:00 AM 42.2113 -80.2372 270° West  Level Estimated
Tue 11:56:00 AM 42.2116 -80.3486 270° West  Level Estimated
Tue 11:57:00 AM 42.2118 -80.4600 270° West  Level Estimated
Tue 11:58:00 AM 42.2119 -80.5714 270° West  Level Estimated
Tue 11:59:00 AM 42.2119 -80.6829 270° West  Level Estimated
Tue 12:00:00 PM 42.2117 -80.7943 270° West  Level Estimated
Tue 12:01:00 PM 42.2115 -80.9057 270° West  Level Estimated
Tue 12:02:00 PM 42.2111 -81.0171 270° West  Level Estimated
Tue 12:03:00 PM 42.2107 -81.1285 270° West  Level Estimated
Tue 12:04:00 PM 42.2101 -81.2399 270° West  Level Estimated
Tue 12:05:00 PM 42.2094 -81.3513 270° West  Level Estimated
Tue 12:06:00 PM 42.2086 -81.4628 269° West  Level Estimated
Tue 12:07:00 PM 42.2078 -81.5742 269° West  Level Estimated
Tue 12:08:00 PM 42.2068 -81.6856 269° West  Level Estimated
Tue 12:09:00 PM 42.2057 -81.7970 269° West  Level Estimated
Tue 12:10:00 PM 42.2044 -81.9084 269° West  Level Estimated
Tue 12:11:00 PM 42.2031 -82.0198 269° West  Level Estimated
Tue 12:12:00 PM 42.2017 -82.1311 269° West  Level Estimated
Tue 12:13:00 PM 42.2001 -82.2425 269° West  Level Estimated
Tue 12:14:00 PM 42.1985 -82.3539 269° West  Level Estimated
Tue 12:15:00 PM 42.1968 -82.4653 269° West  Level Estimated
Tue 12:16:00 PM 42.1949 -82.5766 269° West  Level Estimated
Tue 12:17:00 PM 42.1929 -82.6880 269° West  Level Estimated
Tue 12:18:00 PM 42.1908 -82.7993 269° West  Level Estimated
Tue 12:19:00 PM 42.1887 -82.9107 269° West  Level Estimated
Tue 12:20:00 PM 42.1864 -83.0220 268° West  Level Estimated
Tue 12:21:00 PM 42.1840 -83.1333 268° West  Level Estimated
Tue 12:22:00 PM 42.1815 -83.2447 268° West  Level Estimated
Tue 12:23:00 PM 42.1788 -83.3560 268° West  Level Estimated
Tue 12:24:00 PM 42.1761 -83.4673 268° West  Level Estimated
Tue 12:25:00 PM 42.1733 -83.5786 268° West  Level Estimated
Tue 12:26:00 PM 42.1704 -83.6898 268° West  Level Estimated
Tue 12:27:00 PM 42.1673 -83.8011 268° West  Level Estimated
Tue 12:28:00 PM 42.1642 -83.9124 268° West  Level Estimated
Tue 12:29:00 PM 42.1609 -84.0236 268° West  Level Estimated
Tue 12:30:00 PM 42.1575 -84.1348 268° West  Level Estimated
Tue 12:31:00 PM 42.1541 -84.2461 268° West  Level Estimated
Tue 12:32:00 PM 42.1505 -84.3573 268° West  Level Estimated
Tue 12:33:00 PM 42.1468 -84.4685 267° West  Level Estimated
Tue 12:34:00 PM 42.1430 -84.5797 267° West  Level Estimated
Tue 12:35:00 PM 42.1391 -84.6908 267° West  Level Estimated
Tue 12:36:00 PM 42.1351 -84.8020 267° West  Level Estimated
Tue 12:37:00 PM 42.1310 -84.9131 267° West  Level Estimated
Tue 12:38:00 PM 42.1267 -85.0242 267° West  Level Estimated
Tue 12:39:00 PM 42.1224 -85.1354 267° West  Level Estimated
Tue 12:40:00 PM 42.1180 -85.2465 267° West  Level Estimated
Tue 12:41:00 PM 42.1134 -85.3575 267° West  Level Estimated
Tue 12:42:00 PM 42.1088 -85.4686 267° West  Level Estimated
Tue 12:43:00 PM 42.1040 -85.5797 267° West  Level Estimated
Tue 12:44:00 PM 42.0991 -85.6907 267° West  Level Estimated
Tue 12:45:00 PM 42.0942 -85.8017 267° West  Level Estimated
Tue 12:46:00 PM 42.0891 -85.9127 267° West  Level Estimated
Tue 12:47:00 PM 42.0839 -86.0237 266° West  Level Estimated
Tue 12:48:00 PM 42.0786 -86.1346 266° West  Level Estimated
Tue 12:49:00 PM 42.0732 -86.2456 266° West  Level Estimated
Tue 12:50:00 PM 42.0677 -86.3565 266° West  Level Estimated
Tue 12:51:00 PM 42.0621 -86.4674 266° West  Level Estimated
Tue 12:52:00 PM 42.0563 -86.5783 266° West  Level Estimated
Tue 12:53:00 PM 42.0505 -86.6892 266° West  Level Estimated
Tue 12:54:00 PM 42.0446 -86.8000 266° West  Level Estimated
Tue 12:55:00 PM 42.0385 -86.9108 266° West  Level Estimated
Tue 12:56:00 PM 42.0324 -87.0216 266° West  Level Estimated
Tue 12:57:00 PM 42.0261 -87.1324 266° West  Level Estimated
Tue 12:58:00 PM 42.0198 -87.2432 266° West  Level Estimated
Tue 12:59:00 PM 42.0133 -87.3539 266° West  Level Estimated
Tue 01:00:00 PM 42.0067 -87.4646 265° West  Level Estimated
Tue 01:01:00 PM 42.0000 -87.5753 265° West  Level Estimated

Login

Don't have an account? Register now (free) for customized features, flight alerts, and more!